sensor_id;sensor_type;location;lat;lon;timestamp;pressure;altitude;pressure_sealevel;temperature;humidity
16431;BME280;8325;49.284;7.238;2023-05-09T04:01:09;98872.72;;;14.12;100.00
16431;BME280;8325;49.284;7.238;2023-05-09T04:05:21;98866.47;;;14.13;100.00
16431;BME280;8325;49.284;7.238;2023-05-09T04:09:33;98863.03;;;14.12;100.00
16431;BME280;8325;49.284;7.238;2023-05-09T04:13:44;98870.09;;;14.12;100.00
16431;BME280;8325;49.284;7.238;2023-05-09T04:18:07;98866.47;;;14.13;100.00
16431;BME280;8325;49.284;7.238;2023-05-09T04:22:19;98869.56;;;14.16;100.00
16431;BME280;8325;49.284;7.238;2023-05-09T04:26:31;98855.19;;;14.19;100.00
16431;BME280;8325;49.284;7.238;2023-05-09T04:30:43;98846.94;;;14.22;100.00
16431;BME280;8325;49.284;7.238;2023-05-09T04:34:56;98850.84;;;14.26;100.00
16431;BME280;8325;49.284;7.238;2023-05-09T04:39:13;98848.44;;;14.31;100.00
16431;BME280;8325;49.284;7.238;2023-05-09T04:43:34;98848.88;;;14.35;100.00
16431;BME280;8325;49.284;7.238;2023-05-09T04:47:45;98838.00;;;14.38;100.00
16431;BME280;8325;49.284;7.238;2023-05-09T04:51:57;98835.78;;;14.41;100.00
16431;BME280;8325;49.284;7.238;2023-05-09T04:56:09;98831.13;;;14.43;100.00
16431;BME280;8325;49.284;7.238;2023-05-09T05:00:21;98836.81;;;14.47;100.00
16431;BME280;8325;49.284;7.238;2023-05-09T05:04:33;98834.47;;;14.52;100.00
16431;BME280;8325;49.284;7.238;2023-05-09T05:08:46;98828.19;;;14.53;100.00
16431;BME280;8325;49.284;7.238;2023-05-09T05:12:57;98830.00;;;14.53;100.00
16431;BME280;8325;49.284;7.238;2023-05-09T05:17:09;98833.28;;;14.55;100.00
16431;BME280;8325;49.284;7.238;2023-05-09T05:21:21;98827.25;;;14.61;100.00
16431;BME280;8325;49.284;7.238;2023-05-09T05:25:33;98826.47;;;14.67;100.00
16431;BME280;8325;49.284;7.238;2023-05-09T05:29:45;98819.63;;;14.72;100.00
16431;BME280;8325;49.284;7.238;2023-05-09T05:33:57;98815.88;;;14.88;100.00
16431;BME280;8325;49.284;7.238;2023-05-09T05:38:09;98805.41;;;15.08;100.00
16431;BME280;8325;49.284;7.238;2023-05-09T05:42:22;98810.59;;;15.36;100.00
16431;BME280;8325;49.284;7.238;2023-05-09T05:46:34;98809.03;;;15.62;100.00
16431;BME280;8325;49.284;7.238;2023-05-09T05:50:46;98813.53;;;15.75;100.00
16431;BME280;8325;49.284;7.238;2023-05-09T05:55:00;98817.19;;;15.87;100.00
16431;BME280;8325;49.284;7.238;2023-05-09T05:59:12;98806.25;;;15.83;100.00
16431;BME280;8325;49.284;7.238;2023-05-09T06:03:24;98803.84;;;15.95;100.00
16431;BME280;8325;49.284;7.238;2023-05-09T06:07:54;98799.78;;;15.93;100.00
16431;BME280;8325;49.284;7.238;2023-05-09T06:12:05;98791.06;;;15.92;100.00
16431;BME280;8325;49.284;7.238;2023-05-09T06:16:17;98793.31;;;15.95;100.00
16431;BME280;8325;49.284;7.238;2023-05-09T06:20:34;98781.13;;;16.14;100.00
16431;BME280;8325;49.284;7.238;2023-05-09T06:24:46;98776.66;;;16.21;100.00
16431;BME280;8325;49.284;7.238;2023-05-09T06:28:58;98766.44;;;16.58;100.00
16431;BME280;8325;49.284;7.238;2023-05-09T06:33:09;98768.81;;;17.63;100.00
16431;BME280;8325;49.284;7.238;2023-05-09T06:37:23;98767.44;;;18.72;100.00
16431;BME280;8325;49.284;7.238;2023-05-09T06:42:00;98768.38;;;18.41;100.00
16431;BME280;8325;49.284;7.238;2023-05-09T06:46:15;98764.22;;;18.08;99.25
16431;BME280;8325;49.284;7.238;2023-05-09T06:50:27;98749.41;;;17.76;100.00
16431;BME280;8325;49.284;7.238;2023-05-09T06:54:41;98749.06;;;17.97;100.00
16431;BME280;8325;49.284;7.238;2023-05-09T06:58:52;98754.97;;;17.67;100.00
16431;BME280;8325;49.284;7.238;2023-05-09T07:03:04;98750.75;;;17.28;100.00
16431;BME280;8325;49.284;7.238;2023-05-09T07:07:17;98753.91;;;17.05;100.00
16431;BME280;8325;49.284;7.238;2023-05-09T07:11:35;98745.66;;;16.95;100.00
16431;BME280;8325;49.284;7.238;2023-05-09T07:15:47;98746.22;;;17.03;100.00
16431;BME280;8325;49.284;7.238;2023-05-09T07:19:58;98729.69;;;17.21;100.00
16431;BME280;8325;49.284;7.238;2023-05-09T07:24:10;98726.84;;;17.48;100.00
16431;BME280;8325;49.284;7.238;2023-05-09T07:28:22;98719.47;;;17.32;100.00
16431;BME280;8325;49.284;7.238;2023-05-09T07:32:34;98709.34;;;17.54;100.00
16431;BME280;8325;49.284;7.238;2023-05-09T07:36:45;98708.44;;;17.66;100.00
16431;BME280;8325;49.284;7.238;2023-05-09T07:40:57;98705.00;;;17.66;100.00
16431;BME280;8325;49.284;7.238;2023-05-09T07:45:09;98693.25;;;17.87;100.00
16431;BME280;8325;49.284;7.238;2023-05-09T07:49:21;98691.81;;;18.09;100.00
16431;BME280;8325;49.284;7.238;2023-05-09T07:53:32;98683.44;;;18.12;100.00
16431;BME280;8325;49.284;7.238;2023-05-09T07:57:44;98678.47;;;18.04;98.91
16431;BME280;8325;49.284;7.238;2023-05-09T08:01:55;98684.94;;;18.27;97.83
16431;BME280;8325;49.284;7.238;2023-05-09T08:06:07;98684.66;;;18.16;98.34
16431;BME280;8325;49.284;7.238;2023-05-09T08:10:18;98682.00;;;18.16;99.25
16431;BME280;8325;49.284;7.238;2023-05-09T08:14:32;98670.81;;;18.14;99.74
16431;BME280;8325;49.284;7.238;2023-05-09T08:18:44;98664.38;;;18.10;99.55
16431;BME280;8325;49.284;7.238;2023-05-09T08:22:55;98654.44;;;18.06;99.88
16431;BME280;8325;49.284;7.238;2023-05-09T08:27:07;98658.41;;;18.15;100.00
16431;BME280;8325;49.284;7.238;2023-05-09T08:31:18;98651.59;;;17.89;100.00
16431;BME280;8325;49.284;7.238;2023-05-09T08:35:30;98650.56;;;18.08;100.00
16431;BME280;8325;49.284;7.238;2023-05-09T08:39:41;98648.19;;;18.18;99.83
16431;BME280;8325;49.284;7.238;2023-05-09T08:43:53;98645.19;;;18.15;97.42
16431;BME280;8325;49.284;7.238;2023-05-09T08:48:05;98637.44;;;18.50;97.05
16431;BME280;8325;49.284;7.238;2023-05-09T08:52:19;98628.41;;;18.76;93.78
16431;BME280;8325;49.284;7.238;2023-05-09T08:56:31;98613.91;;;18.79;90.54
16431;BME280;8325;49.284;7.238;2023-05-09T09:00:43;98615.56;;;18.92;89.72
16431;BME280;8325;49.284;7.238;2023-05-09T09:04:55;98604.09;;;19.09;89.46
16431;BME280;8325;49.284;7.238;2023-05-09T09:09:07;98607.06;;;19.01;87.51
16431;BME280;8325;49.284;7.238;2023-05-09T09:13:19;98592.13;;;19.07;89.72
16431;BME280;8325;49.284;7.238;2023-05-09T09:17:32;98588.56;;;19.48;90.62
16431;BME280;8325;49.284;7.238;2023-05-09T09:21:49;98575.25;;;19.55;90.44
16431;BME280;8325;49.284;7.238;2023-05-09T09:26:04;98570.25;;;19.94;87.48
16431;BME280;8325;49.284;7.238;2023-05-09T09:30:16;98568.50;;;19.99;83.79
16431;BME280;8325;49.284;7.238;2023-05-09T09:34:27;98562.38;;;20.11;84.07
16431;BME280;8325;49.284;7.238;2023-05-09T09:38:40;98549.34;;;20.09;84.28
16431;BME280;8325;49.284;7.238;2023-05-09T09:42:54;98551.28;;;19.62;81.05
16431;BME280;8325;49.284;7.238;2023-05-09T09:47:08;98541.25;;;20.16;83.16
16431;BME280;8325;49.284;7.238;2023-05-09T09:51:20;98527.09;;;20.10;81.08
16431;BME280;8325;49.284;7.238;2023-05-09T09:55:33;98522.53;;;20.22;79.83
16431;BME280;8325;49.284;7.238;2023-05-09T09:59:56;98519.09;;;19.93;77.51
16431;BME280;8325;49.284;7.238;2023-05-09T10:04:14;98510.03;;;19.77;80.22
16431;BME280;8325;49.284;7.238;2023-05-09T10:08:26;98506.63;;;19.94;80.98
16431;BME280;8325;49.284;7.238;2023-05-09T10:12:39;98504.59;;;20.13;79.85
16431;BME280;8325;49.284;7.238;2023-05-09T10:16:54;98497.03;;;20.33;78.54
16431;BME280;8325;49.284;7.238;2023-05-09T10:21:07;98487.38;;;20.44;78.08
16431;BME280;8325;49.284;7.238;2023-05-09T10:25:48;98487.00;;;20.35;76.52
16431;BME280;8325;49.284;7.238;2023-05-09T10:30:12;98476.84;;;20.32;76.71
16431;BME280;8325;49.284;7.238;2023-05-09T10:34:24;98467.81;;;20.62;76.84
16431;BME280;8325;49.284;7.238;2023-05-09T10:38:36;98460.75;;;20.84;75.59
16431;BME280;8325;49.284;7.238;2023-05-09T10:42:48;98457.59;;;21.04;76.36
16431;BME280;8325;49.284;7.238;2023-05-09T10:47:00;98449.13;;;21.07;73.96
16431;BME280;8325;49.284;7.238;2023-05-09T10:51:13;98438.59;;;20.96;74.72
16431;BME280;8325;49.284;7.238;2023-05-09T10:55:35;98429.66;;;21.02;71.15
16431;BME280;8325;49.284;7.238;2023-05-09T10:59:49;98422.63;;;20.90;71.40
16431;BME280;8325;49.284;7.238;2023-05-09T11:04:11;98413.25;;;21.05;72.71
16431;BME280;8325;49.284;7.238;2023-05-09T11:21:35;98385.28;;;21.19;67.56
16431;BME280;8325;49.284;7.238;2023-05-09T11:25:48;98380.50;;;21.38;66.62
16431;BME280;8325;49.284;7.238;2023-05-09T11:30:03;98369.19;;;21.48;66.86
16431;BME280;8325;49.284;7.238;2023-05-09T11:34:18;98365.69;;;21.69;67.33
16431;BME280;8325;49.284;7.238;2023-05-09T11:38:39;98357.66;;;21.64;66.34
16431;BME280;8325;49.284;7.238;2023-05-09T11:42:53;98351.00;;;21.62;63.97
16431;BME280;8325;49.284;7.238;2023-05-09T11:47:09;98342.25;;;21.66;65.79
16431;BME280;8325;49.284;7.238;2023-05-09T11:51:21;98328.47;;;21.69;64.74
16431;BME280;8325;49.284;7.238;2023-05-09T11:55:36;98319.84;;;21.84;64.66
16431;BME280;8325;49.284;7.238;2023-05-09T11:59:48;98312.53;;;21.69;64.71
16431;BME280;8325;49.284;7.238;2023-05-09T12:04:00;98306.25;;;21.80;65.01
16431;BME280;8325;49.284;7.238;2023-05-09T12:08:12;98296.72;;;21.84;65.49
16431;BME280;8325;49.284;7.238;2023-05-09T12:12:25;98301.47;;;21.82;64.45
16431;BME280;8325;49.284;7.238;2023-05-09T12:16:44;98283.50;;;21.95;65.28
16431;BME280;8325;49.284;7.238;2023-05-09T12:20:56;98279.97;;;22.16;64.69
16431;BME280;8325;49.284;7.238;2023-05-09T12:25:08;98268.06;;;22.29;64.25
16431;BME280;8325;49.284;7.238;2023-05-09T12:29:21;98269.13;;;22.28;62.88
16431;BME280;8325;49.284;7.238;2023-05-09T12:33:36;98251.41;;;22.01;60.40
16431;BME280;8325;49.284;7.238;2023-05-09T12:37:55;98254.19;;;21.84;63.75
16431;BME280;8325;49.284;7.238;2023-05-09T12:42:12;98235.34;;;21.86;64.06
16431;BME280;8325;49.284;7.238;2023-05-09T12:46:23;98245.13;;;21.80;64.57
16431;BME280;8325;49.284;7.238;2023-05-09T12:50:35;98230.41;;;21.68;64.25
16431;BME280;8325;49.284;7.238;2023-05-09T12:54:47;98231.00;;;21.48;64.55
16431;BME280;8325;49.284;7.238;2023-05-09T12:58:59;98234.97;;;21.45;66.03
16431;BME280;8325;49.284;7.238;2023-05-09T13:03:40;98233.38;;;21.44;64.43
16431;BME280;8325;49.284;7.238;2023-05-09T13:07:55;98219.97;;;21.61;64.64
16431;BME280;8325;49.284;7.238;2023-05-09T13:12:07;98214.69;;;21.66;62.67
16431;BME280;8325;49.284;7.238;2023-05-09T13:16:20;98214.47;;;21.68;64.55
16431;BME280;8325;49.284;7.238;2023-05-09T13:20:32;98200.28;;;21.57;64.47
16431;BME280;8325;49.284;7.238;2023-05-09T13:24:43;98197.47;;;21.42;64.69
16431;BME280;8325;49.284;7.238;2023-05-09T13:28:55;98197.03;;;21.23;66.12
16431;BME280;8325;49.284;7.238;2023-05-09T13:33:07;98186.81;;;21.09;66.36
16431;BME280;8325;49.284;7.238;2023-05-09T13:37:35;98181.50;;;21.09;67.59
16431;BME280;8325;49.284;7.238;2023-05-09T13:41:46;98176.88;;;21.00;66.48
16431;BME280;8325;49.284;7.238;2023-05-09T13:45:59;98182.06;;;20.84;68.28
16431;BME280;8325;49.284;7.238;2023-05-09T13:50:10;98166.66;;;20.86;68.09
16431;BME280;8325;49.284;7.238;2023-05-09T13:54:22;98166.34;;;20.83;69.04
16431;BME280;8325;49.284;7.238;2023-05-09T13:58:34;98158.34;;;20.78;69.83
16431;BME280;8325;49.284;7.238;2023-05-09T14:02:46;98159.03;;;20.68;69.57
16431;BME280;8325;49.284;7.238;2023-05-09T14:06:59;98159.66;;;20.53;69.80
16431;BME280;8325;49.284;7.238;2023-05-09T14:11:11;98158.72;;;20.42;69.68
16431;BME280;8325;49.284;7.238;2023-05-09T14:15:22;98148.03;;;20.37;70.15
16431;BME280;8325;49.284;7.238;2023-05-09T14:19:34;98150.63;;;20.32;68.63
16431;BME280;8325;49.284;7.238;2023-05-09T14:23:45;98141.25;;;20.24;73.72
16431;BME280;8325;49.284;7.238;2023-05-09T14:27:57;98148.13;;;20.04;76.11
16431;BME280;8325;49.284;7.238;2023-05-09T14:32:09;98147.88;;;19.83;78.79
16431;BME280;8325;49.284;7.238;2023-05-09T14:36:23;98148.84;;;19.77;78.71
16431;BME280;8325;49.284;7.238;2023-05-09T14:40:34;98148.81;;;19.43;81.18
16431;BME280;8325;49.284;7.238;2023-05-09T14:44:47;98147.84;;;19.16;83.33
16431;BME280;8325;49.284;7.238;2023-05-09T14:48:59;98150.06;;;19.07;85.88
16431;BME280;8325;49.284;7.238;2023-05-09T14:53:14;98156.25;;;18.84;90.38
16431;BME280;8325;49.284;7.238;2023-05-09T14:57:26;98159.00;;;18.89;94.48
16431;BME280;8325;49.284;7.238;2023-05-09T15:01:38;98154.47;;;18.73;96.06
16431;BME280;8325;49.284;7.238;2023-05-09T15:05:50;98147.25;;;18.56;97.40
16431;BME280;8325;49.284;7.238;2023-05-09T15:10:02;98149.56;;;18.53;99.11
16431;BME280;8325;49.284;7.238;2023-05-09T15:14:15;98158.47;;;18.35;100.00
16431;BME280;8325;49.284;7.238;2023-05-09T15:18:27;98153.56;;;18.15;100.00
16431;BME280;8325;49.284;7.238;2023-05-09T15:22:39;98151.50;;;18.05;100.00
16431;BME280;8325;49.284;7.238;2023-05-09T15:26:51;98141.41;;;17.79;100.00
16431;BME280;8325;49.284;7.238;2023-05-09T15:31:02;98139.19;;;17.76;100.00
16431;BME280;8325;49.284;7.238;2023-05-09T15:35:14;98144.72;;;17.62;100.00
16431;BME280;8325;49.284;7.238;2023-05-09T15:39:26;98157.56;;;17.47;100.00
16431;BME280;8325;49.284;7.238;2023-05-09T15:43:38;98146.25;;;17.16;100.00
16431;BME280;8325;49.284;7.238;2023-05-09T15:47:49;98142.47;;;17.12;100.00
16431;BME280;8325;49.284;7.238;2023-05-09T15:52:08;98153.78;;;17.01;100.00
16431;BME280;8325;49.284;7.238;2023-05-09T15:56:20;98159.69;;;16.85;100.00
16431;BME280;8325;49.284;7.238;2023-05-09T16:00:32;98168.72;;;16.58;100.00
16431;BME280;8325;49.284;7.238;2023-05-09T16:04:44;98148.94;;;16.49;100.00
16431;BME280;8325;49.284;7.238;2023-05-09T16:08:55;98140.69;;;16.46;100.00
16431;BME280;8325;49.284;7.238;2023-05-09T16:13:07;98125.75;;;16.40;100.00
16431;BME280;8325;49.284;7.238;2023-05-09T16:17:19;98126.19;;;16.37;100.00
16431;BME280;8325;49.284;7.238;2023-05-09T16:21:30;98123.78;;;16.35;100.00
16431;BME280;8325;49.284;7.238;2023-05-09T16:25:43;98113.47;;;16.33;100.00
16431;BME280;8325;49.284;7.238;2023-05-09T16:29:55;98115.22;;;16.40;100.00
16431;BME280;8325;49.284;7.238;2023-05-09T16:34:06;98107.97;;;16.35;100.00
16431;BME280;8325;49.284;7.238;2023-05-09T16:38:18;98107.97;;;16.35;100.00
16431;BME280;8325;49.284;7.238;2023-05-09T16:42:29;98095.97;;;16.39;100.00
16431;BME280;8325;49.284;7.238;2023-05-09T16:46:41;98092.22;;;16.28;100.00
16431;BME280;8325;49.284;7.238;2023-05-09T16:50:53;98089.91;;;16.20;100.00
16431;BME280;8325;49.284;7.238;2023-05-09T16:55:05;98081.84;;;16.15;100.00
16431;BME280;8325;49.284;7.238;2023-05-09T16:59:16;98091.53;;;16.03;100.00
16431;BME280;8325;49.284;7.238;2023-05-09T17:03:28;98095.03;;;15.97;100.00
16431;BME280;8325;49.284;7.238;2023-05-09T17:07:40;98098.97;;;15.69;100.00
16431;BME280;8325;49.284;7.238;2023-05-09T17:11:52;98092.34;;;15.60;100.00
16431;BME280;8325;49.284;7.238;2023-05-09T17:16:03;98093.22;;;15.54;100.00
16431;BME280;8325;49.284;7.238;2023-05-09T17:20:15;98085.38;;;15.47;100.00
16431;BME280;8325;49.284;7.238;2023-05-09T17:24:27;98088.25;;;15.46;100.00
16431;BME280;8325;49.284;7.238;2023-05-09T17:28:38;98084.13;;;15.50;100.00
16431;BME280;8325;49.284;7.238;2023-05-09T17:32:50;98074.03;;;15.47;100.00
16431;BME280;8325;49.284;7.238;2023-05-09T17:37:01;98075.97;;;15.33;100.00
16431;BME280;8325;49.284;7.238;2023-05-09T17:41:13;98076.22;;;15.31;100.00
16431;BME280;8325;49.284;7.238;2023-05-09T17:45:24;98071.75;;;15.32;100.00
16431;BME280;8325;49.284;7.238;2023-05-09T17:49:36;98068.50;;;15.30;100.00
16431;BME280;8325;49.284;7.238;2023-05-09T17:53:48;98064.94;;;15.24;100.00
16431;BME280;8325;49.284;7.238;2023-05-09T17:57:59;98059.25;;;15.27;100.00
16431;BME280;8325;49.284;7.238;2023-05-09T18:02:11;98055.09;;;15.13;100.00
16431;BME280;8325;49.284;7.238;2023-05-09T18:06:23;98051.75;;;15.06;100.00
16431;BME280;8325;49.284;7.238;2023-05-09T18:10:34;98044.66;;;15.06;100.00
16431;BME280;8325;49.284;7.238;2023-05-09T18:14:46;98044.28;;;15.03;100.00
16431;BME280;8325;49.284;7.238;2023-05-09T18:18:58;98044.84;;;15.05;100.00
16431;BME280;8325;49.284;7.238;2023-05-09T18:23:09;98032.13;;;15.02;100.00
16431;BME280;8325;49.284;7.238;2023-05-09T18:27:21;98028.28;;;15.04;100.00
16431;BME280;8325;49.284;7.238;2023-05-09T18:31:33;98031.81;;;14.91;100.00
16431;BME280;8325;49.284;7.238;2023-05-09T18:35:49;98023.69;;;14.93;100.00
16431;BME280;8325;49.284;7.238;2023-05-09T18:40:01;98036.22;;;14.98;100.00
16431;BME280;8325;49.284;7.238;2023-05-09T18:44:12;98055.09;;;14.88;100.00
16431;BME280;8325;49.284;7.238;2023-05-09T18:48:24;98049.06;;;14.81;100.00
16431;BME280;8325;49.284;7.238;2023-05-09T18:52:36;98053.63;;;14.67;100.00
16431;BME280;8325;49.284;7.238;2023-05-09T18:56:47;98056.06;;;14.62;100.00
16431;BME280;8325;49.284;7.238;2023-05-09T19:01:00;98058.94;;;14.60;100.00
16431;BME280;8325;49.284;7.238;2023-05-09T19:05:11;98062.53;;;14.66;100.00
16431;BME280;8325;49.284;7.238;2023-05-09T19:09:23;98065.75;;;14.68;100.00
16431;BME280;8325;49.284;7.238;2023-05-09T19:13:34;98063.78;;;14.50;100.00
16431;BME280;8325;49.284;7.238;2023-05-09T19:17:48;98066.63;;;14.48;100.00
16431;BME280;8325;49.284;7.238;2023-05-09T19:22:00;98076.81;;;14.38;100.00
16431;BME280;8325;49.284;7.238;2023-05-09T19:26:12;98071.97;;;14.35;100.00
16431;BME280;8325;49.284;7.238;2023-05-09T19:30:25;98077.25;;;14.28;100.00
16431;BME280;8325;49.284;7.238;2023-05-09T19:34:37;98085.91;;;14.36;100.00
16431;BME280;8325;49.284;7.238;2023-05-09T19:38:48;98080.91;;;14.21;100.00
16431;BME280;8325;49.284;7.238;2023-05-09T19:43:00;98092.19;;;14.28;100.00
16431;BME280;8325;49.284;7.238;2023-05-09T19:47:11;98096.66;;;14.21;100.00
16431;BME280;8325;49.284;7.238;2023-05-09T19:51:23;98101.88;;;14.34;100.00
16431;BME280;8325;49.284;7.238;2023-05-09T19:55:35;98110.81;;;14.20;100.00
16431;BME280;8325;49.284;7.238;2023-05-09T19:59:46;98105.56;;;14.20;100.00
16431;BME280;8325;49.284;7.238;2023-05-09T20:03:58;98113.91;;;14.10;100.00
16431;BME280;8325;49.284;7.238;2023-05-09T20:08:09;98108.47;;;13.98;100.00
16431;BME280;8325;49.284;7.238;2023-05-09T20:12:21;98108.91;;;13.89;100.00
16431;BME280;8325;49.284;7.238;2023-05-09T20:16:33;98108.28;;;13.87;100.00
16431;BME280;8325;49.284;7.238;2023-05-09T20:20:44;98111.91;;;13.92;100.00
16431;BME280;8325;49.284;7.238;2023-05-09T20:24:56;98109.09;;;13.87;100.00
16431;BME280;8325;49.284;7.238;2023-05-09T20:29:07;98101.44;;;13.79;100.00
16431;BME280;8325;49.284;7.238;2023-05-09T20:33:19;98116.81;;;13.69;100.00
16431;BME280;8325;49.284;7.238;2023-05-09T20:37:30;98114.19;;;13.69;100.00
16431;BME280;8325;49.284;7.238;2023-05-09T20:41:43;98108.50;;;13.78;100.00
16431;BME280;8325;49.284;7.238;2023-05-09T20:45:55;98114.16;;;13.82;100.00
16431;BME280;8325;49.284;7.238;2023-05-09T20:50:07;98107.31;;;13.74;100.00
16431;BME280;8325;49.284;7.238;2023-05-09T20:54:18;98121.22;;;13.75;100.00
16431;BME280;8325;49.284;7.238;2023-05-09T20:58:32;98123.06;;;13.74;100.00
16431;BME280;8325;49.284;7.238;2023-05-09T21:02:44;98127.91;;;13.71;100.00
16431;BME280;8325;49.284;7.238;2023-05-09T21:06:56;98125.09;;;13.66;100.00
16431;BME280;8325;49.284;7.238;2023-05-09T21:11:07;98132.94;;;13.66;100.00
16431;BME280;8325;49.284;7.238;2023-05-09T21:15:19;98133.16;;;13.71;100.00
16431;BME280;8325;49.284;7.238;2023-05-09T21:19:31;98136.19;;;13.61;100.00
16431;BME280;8325;49.284;7.238;2023-05-09T21:23:42;98133.16;;;13.57;100.00
16431;BME280;8325;49.284;7.238;2023-05-09T21:27:54;98137.19;;;13.53;100.00
